Skip Navigation Links Skip Navigation Links

Current Weather

Antrim County, Bellaire, Mich.

For information only: do not use for flight planning or navigation.
Latest weather
Observation time Friday, May 29, 2020 6:16 PM EDT
Local time Friday, May 29, 2020 6:42 PM EDT
Flight conditions Visual Meteorological Conditions
Winds
Wind direction West-Northwest (290°)
Wind speed 7 mph
Visibility 10 mi.
Sky condition
Ceiling unlimited
Sky clear
Temperature 63°F
Dewpoint 50°F
Altimeter 29.94 in.Hg
Derived measurements
Relative humidity 62%
Density altitude 1046 ft.
Remarks
Fully automated report.
Automated weather observing station with precipitation discriminator.
METAR KACB 292216Z AUTO 29006KT 10SM CLR 17/10 A2994 RMK AO2 T01730099

Settings

Location code

InnerDrive.Weather 4.0.6770.0 Release CLR 4.0.30319.42000
Copyright ©2018 Inner Drive Technology. All rights reserved. Portions Copyright ©1986-2018 David Braverman.

Find weather

Site navigation


Skip Navigation Links

Place info

Page info

PayPal - The safer, easier way to pay online!

Return home.

Copyright ©2020 Inner Drive Technology. Purveyors of fine, hand-crafted computer software. Page printed 2020-05-29T22:42:27 UTC.